Camp Verde, Texas
Current Conditions -  °F | °C
As of 12:55 PM on Thursday 23 Oct 2014 (Local Time) from KERV Reporting Station
Clear Clear  
Wind Chill: 23°   Ceiling: Unl
Heat Index: 23°   Visibility: 10mi
Dew Point: 18°   Wind: 5mph
Humidity: 71%   Direction: 190°S
Pressure: 30.18"   Gusts: NA
Location:  29.9075°N, 98.9982°W
Report Text: KERV 231755Z AUTO 19004KT 10SM CLR 23/18 A3018 RMK AO2 60002 T02300175 10233 20162
Loading
Personal Weather Stations






























Interactive Weather Map
Tropical Storm Tracking
New forecast layout! Learn more

10-Day Weather Forecast

Advertisements
Track Severe Weather on mobile